ADDS METAR Data INFO
IDs: Format: Raw Decoded Include TAF

Data at: 0251 UTC 17 Jan 2018

KCKM 170235Z AUTO 01006KT 10SM FEW026 FEW047 M11/M15 A3071 RMK A01
KCKM 170215Z AUTO 36006KT 10SM FEW032 FEW043 M11/M15 A3072 RMK A01
KCKM 170155Z AUTO 02005KT 10SM FEW031 SCT038 SCT044 M11/M15 A3071 RMK A01
KCKM 170135Z AUTO 02005KT 10SM FEW030 SCT034 BKN043 M11/M15 A3071 RMK A01
KCKM 170115Z AUTO 01007KT 10SM SCT030 BKN040 SCT045 M10/M15 A3071 RMK A01
KCKM 170055Z AUTO 01007KT 10SM SCT030 SCT039 BKN045 M10/M15 A3070 RMK A01
KCKM 170035Z AUTO 36008KT 10SM SCT031 SCT039 M10/M15 A3070 RMK A01
KCKM 170015Z AUTO 36009KT 10SM FEW030 FEW039 M10/M15 A3070 RMK A01
KCKM 162355Z AUTO 35011KT 10SM CLR M09/M15 A3069 RMK A01
KCKM 162335Z AUTO 35011KT 10SM CLR M09/M15 A3069 RMK A01
KCKM 162315Z AUTO 35011KT 10SM CLR M09/M15 A3069 RMK A01
KCKM 162255Z AUTO 34007G12KT 10SM CLR M09/M14 A3068 RMK A01
KCKM 162235Z AUTO 32010KT 10SM CLR M09/M15 A3068 RMK A01
KCKM 162215Z AUTO 32013KT 10SM CLR M09/M15 A3068 RMK A01
KCKM 162155Z AUTO 31012KT 10SM CLR M09/M15 A3068 RMK A01
KCKM 162135Z AUTO 31012KT 10SM CLR M09/M14 A3068 RMK A01
KCKM 162115Z AUTO 30013KT 10SM CLR M09/M15 A3068 RMK A01
KCKM 162055Z AUTO 30012KT 10SM CLR M09/M15 A3067 RMK A01
KCKM 162035Z AUTO 30013KT 10SM CLR M09/M15 A3067 RMK A01
KCKM 162015Z AUTO 31013KT 10SM CLR M09/M14 A3067 RMK A01
KCKM 161955Z AUTO 30015KT 10SM FEW023 M09/M14 A3067 RMK A01
KCKM 161935Z AUTO 30015KT 10SM SCT022 M08/M14 A3068 RMK A01
KCKM 161915Z AUTO 30014KT 10SM BKN022 M08/M14 A3068 RMK A01
KCKM 161855Z AUTO 31014KT 10SM OVC022 M08/M14 A3068 RMK A01
KCKM 161835Z AUTO 31012KT 10SM BKN022 BKN027 M08/M13 A3069 RMK A01
KCKM 161815Z AUTO 32010KT 10SM SCT021 BKN025 M09/M13 A3070 RMK A01
KCKM 161755Z AUTO 31012KT 10SM SCT021 SCT026 M09/M13 A3071 RMK A01
KCKM 161735Z AUTO 33008G17KT 10SM FEW020 SCT024 M08/M14 A3072 RMK A01
KCKM 161715Z AUTO 35015KT 10SM BKN020 BKN024 M08/M14 A3072 RMK A01
KCKM 161655Z AUTO 35016KT 10SM BKN019 BKN024 BKN028 M08/M13 A3073 RMK A01
KCKM 161635Z AUTO 34011KT 10SM FEW016 FEW022 BKN028 M08/M12 A3072 RMK A01
KCKM 161615Z AUTO 34012KT 10SM BKN027 OVC060 M07/M12 A3072 RMK A01
KCKM 161555Z AUTO 34013G19KT 10SM OVC027 M07/M12 A3072 RMK A01
KCKM 161535Z AUTO 33010G17KT 10SM FEW023 BKN027 OVC100 M07/M11 A3072 RMK A01
KCKM 161515Z AUTO 34012G19KT 10SM FEW017 SCT022 BKN065 M07/M12 A3071 RMK A01
KCKM 161455Z AUTO 34012G19KT 9SM SCT021 SCT048 M07/M11 A3071 RMK A01
KCKM 161435Z AUTO 35016KT 7SM FEW041 SCT049 SCT055 M08/M12 A3070 RMK A01
KCKM 161415Z AUTO 34013G21KT 7SM SCT030 BKN040 OVC060 M08/M11 A3070 RMK A01
KCKM 161355Z AUTO 35019KT 3SM HZ FEW015 SCT022 OVC030 M08/M11 A3069 RMK A01
KCKM 161335Z AUTO 35015KT 1 1/4SM BR SCT003 BKN017 OVC022 M08/M09 A3069 RMK A01
KCKM 161315Z AUTO 34011G19KT 1 3/4SM BR BKN006 BKN010 OVC021 M08/M09 A3068 RMK A01
KCKM 161255Z AUTO 34014G19KT 1 3/4SM BR BKN005 BKN011 OVC020 M08/M09 A3067 RMK A01
KCKM 161235Z AUTO 34016KT 2 1/2SM BR SCT011 BKN017 OVC055 M08/M09 A3066 RMK A01
KCKM 161215Z AUTO 34013G19KT 2SM BR FEW004 SCT009 BKN016 M07/M09 A3064 RMK A01
KCKM 161155Z AUTO 35017G22KT 2SM BR FEW004 SCT009 BKN016 M07/M08 A3065 RMK A01
KCKM 161135Z AUTO 36017G23KT 2SM BR BKN003 BKN010 OVC050 M07/M08 A3063 RMK A01
KCKM 161115Z AUTO 36019KT 1 1/4SM BR OVC004 M06/M07 A3061 RMK A01
KCKM 161055Z AUTO 36018KT 2 1/2SM BR BKN004 BKN010 OVC019 M06/M06 A3061 RMK A01
KCKM 161035Z AUTO 35014KT 1 1/4SM BR OVC003 M05/M06 A3060 RMK A01
KCKM 161015Z AUTO 34011G16KT 2SM BR BKN004 OVC012 M05/M06 A3061 RMK A01
KCKM 160955Z AUTO 34012G19KT 1 3/4SM BR BKN004 OVC012 M05/M06 A3059 RMK A01
KCKM 160935Z AUTO 35013G20KT 2 1/2SM BR FEW004 BKN013 OVC055 M05/M05 A3059 RMK A01
KCKM 160915Z AUTO 35018G23KT 5SM BR FEW004 SCT011 BKN018 M05/M06 A3058 RMK A01
KCKM 160855Z AUTO 35013G18KT 2SM BR BKN004 BKN016 OVC021 M04/M05 A3057 RMK A01
KCKM 160835Z AUTO 34016G26KT 1 1/2SM BR BKN003 BKN007 OVC024 M04/M05 A3057 RMK A01
KCKM 160815Z AUTO 35018G26KT 6SM BR SCT012 BKN016 OVC030 M04/M04 A3055 RMK A01
KCKM 160755Z AUTO 36019G24KT 3SM BR SCT004 BKN014 OVC032 M04/M04 A3053 RMK A01
KCKM 160735Z AUTO 35015G23KT 1 3/4SM BR OVC003 M03/M03 A3053 RMK A01
KCKM 160715Z AUTO 36023KT 1SM BR OVC003 M03/M03 A3053 RMK A01
KCKM 160655Z AUTO 34015G22KT 1 1/4SM BR OVC004 M02/M02 A3054 RMK A01
KCKM 160635Z AUTO 36020G25KT 2 1/2SM BR SCT007 SCT014 OVC038 M02/M02 A3053 RMK A01
KCKM 160615Z AUTO 35018G23KT 3SM BR FEW008 SCT013 BKN017 M02/M01 A3052 RMK A01
KCKM 160555Z AUTO 36021G27KT 5SM BR SCT013 SCT018 OVC031 M01/M01 A3051 RMK A01
KCKM 160535Z AUTO 35016G23KT 6SM BR BKN012 OVC032 M01/M01 A3050 RMK A01
KCKM 160515Z AUTO 35017KT 9SM BKN012 BKN032 OVC055 M01/M01 A3048 RMK A01
KCKM 160455Z AUTO 35017G22KT 6SM BR OVC012 M00/M00 A3048 RMK A01
KCKM 160435Z AUTO 36016G24KT 10SM BKN012 OVC049 00/M00 A3048 RMK A01
KCKM 160415Z AUTO 36020G25KT 10SM SCT010 BKN013 OVC050 00/00 A3047 RMK A01
KCKM 160355Z AUTO 36017G25KT 10SM BKN010 BKN027 OVC050 01/01 A3046 RMK A01
KCKM 160335Z AUTO 36020KT 10SM SCT013 BKN027 OVC050 01/01 A3045 RMK A01
KCKM 160315Z AUTO 35017KT 9SM BKN012 OVC026 02/02 A3046 RMK A01
KCKM 160255Z AUTO 01015G21KT 10SM SCT012 BKN025 OVC048 02/02 A3046 RMK A01
KCKM 160235Z AUTO 36014G19KT 10SM FEW026 OVC048 02/01 A3045 RMK A01
KCKM 160215Z AUTO 01012G18KT 10SM OVC046 03/01 A3044 RMK A01
KCKM 160155Z AUTO 36013KT 10SM OVC042 03/01 A3043 RMK A01
KCKM 160135Z AUTO 36014KT OVC041 03/01 A3043 RMK A01
KCKM 160115Z AUTO 36012G17KT 10SM OVC041 03/01 A3042 RMK A01
KCKM 160055Z AUTO 36008KT 10SM OVC041 03/01 A3041 RMK A01
KCKM 160035Z AUTO 36010KT 10SM OVC041 04/01 A3041 RMK A01
KCKM 160015Z AUTO 01010KT 10SM OVC041 04/00 A3040 RMK A01
KCKM 152355Z AUTO 36013KT 10SM OVC039 04/02 A3039 RMK A01
KCKM 152335Z AUTO 36010KT 10SM OVC037 05/03 A3038 RMK A01
KCKM 152315Z AUTO 00000KT 10SM BKN035 OVC047 06/02 A3037 RMK A01
KCKM 152255Z AUTO 00000KT 10SM FEW029 BKN034 OVC065 06/01 A3037 RMK A01
KCKM 152235Z AUTO 00000KT 10SM OVC029 07/01 A3037 RMK A01
KCKM 152215Z AUTO 00000KT 10SM BKN029 BKN045 OVC055 07/00 A3036 RMK A01
KCKM 152155Z AUTO 00000KT 10SM BKN031 BKN047 OVC055 07/01 A3036 RMK A01
KCKM 152135Z AUTO 08003KT 10SM FEW032 OVC046 07/01 A3036 RMK A01
KCKM 152115Z AUTO 09004KT 10SM SCT045 08/01 A3036 RMK A01
KCKM 152055Z AUTO 00000KT 10SM CLR 08/00 A3036 RMK A01
KCKM 152035Z AUTO 15004KT 10SM CLR 07/M00 A3036 RMK A01
KCKM 152015Z AUTO 17004KT 10SM CLR 07/M00 A3036 RMK A01
KCKM 151955Z AUTO 17005KT 10SM CLR 07/M00 A3036 RMK A01
KCKM 151935Z AUTO 16005KT 10SM CLR 07/M00 A3036 RMK A01
KCKM 151915Z AUTO 18004KT 10SM CLR 07/M01 A3036 RMK A01
KCKM 151855Z AUTO 17004KT CLR 06/M01 A3037 RMK A01
KCKM 151835Z AUTO 20005KT 10SM CLR 06/M01 A3039 RMK A01
KCKM 151815Z AUTO 20006KT 10SM CLR 06/M01 A3040 RMK A01
KCKM 151755Z AUTO 16006KT 10SM CLR 05/M01 A3041 RMK A01
KCKM 151735Z AUTO 16008KT 10SM CLR 05/M01 A3041 RMK A01
KCKM 151715Z AUTO 20005KT 10SM CLR 04/M03 A3043 RMK A01
KCKM 151655Z AUTO 21006KT 10SM CLR 03/M03 A3044 RMK A01
KCKM 151635Z AUTO 20006KT 10SM CLR 03/M03 A3043 RMK A01
KCKM 151615Z AUTO 20005KT 10SM CLR 03/M02 A3044 RMK A01
KCKM 151555Z AUTO 19005KT 10SM CLR 02/M02 A3043 RMK A01
KCKM 151535Z AUTO 18007KT 10SM CLR 01/M03 A3043 RMK A01
KCKM 151515Z AUTO 17007KT 10SM CLR 00/M02 A3042 RMK A01
KCKM 151455Z AUTO 16006KT 10SM CLR M01/M01 A3042 RMK A01